Pagina principale
METAR-TAF:

METAR-TAF

Aeroporti :

Aeroporto di Innsbruck

Innsbruck, Austria

latitudine: 47-16N, longitudine: 011-21E, altezza: 581 m

Osservazione

Il bollettino è stato emesso 29 minuti fa, alle 18:20 UTC
Vento 1 kt da direzioni variabili
Temperature -6°C
Umidità 79%
Pressione 1013 hPa
Visibilità 10 km o più
nessuna nube inferiore a 1500 m e nessun cumulonembo

METAR: LOWI 191820Z VRB01KT CAVOK M06/M09 Q1013 R08/19//95 NOSIG

Ora: 19:49 (18:49 UTC)

Previsione

Il bollettino è stato emesso 1 ora e 34 minuti fa, alle 17:15 UTC
Previsione valida dal 19 alle 18 UTC al 20 alle 18 UTC
Vento 2 kt da direzioni variabili
Visibilità 10 km o più
nessuna nube inferiore a 1500 m e nessun cumulonembo

TAF: LOWI 191715Z 1918/2018 VRB02KT CAVOK TXM00/2013Z TNM09/2007Z

Osservazioni e previsioni meteorologiche di più di 4000 aeroporti (messaggi METAR e TAF).

Le stazioni disponibili sono rappresentate dai dischi gialli e rossi sulla carta.

Puntare il mouse per vedere il nome della stazione.

Clicca sopra per visualizzare le osservazioni e previsioni meteorologiche.

Per cambiare la mappa : fare clic sui pulsanti verdi con una croce nera per ingrandire, il pulsante verde con un trattino per diminuire, o sulla freccia verde per le mappe adiacenti.


METAR-TAF: